Terminal Aerodrome Forecast
Issued by NWS Twin Cities, MN

Home | Current Version | Previous Version | Graphics & Text | Print | Product List | Glossary On
Versions: 1 2 3 4 5 6 7 8 9 10 11 12
000
FTUS43 KMPX 032333
TAFEAU
TAF
KEAU 032333Z 0400/0424 35012KT 6SM -SHRA OVC045
      TEMPO 0400/0401 35025G45KT 2SM TSRAGR OVC020CB
     FM040200 36010KT P6SM VCTS BKN045CB
     FM040600 36008KT P6SM VCSH SCT045 BKN090
     FM040800 35007KT P6SM SKC
     FM041400 02010KT P6SM BKN250=

USA.gov is the U.S. government's official web portal to all federal, state and local government web resources and services.